Time;durP1;ratioP1;P1;durP2;ratioP2;P2;SDS_P1;SDS_P2;PMS_P1;PMS_P2;Temp;Humidity;BMP_temperature;BMP_pressure;BME280_temperature;BME280_humidity;BME280_pressure;Samples;Min_cycle;Max_cycle;Signal;HPM_P1;HPM_P2
2022/09/17 00:00:22;;;;;;;3.97;1.30;;;;;;;;;;5022668;28;20327;-14
2022/09/17 00:02:52;;;;;;;6.85;1.40;;;;;;;;;;5013772;28;20311;-14
2022/09/17 00:05:20;;;;;;;8.50;1.63;;;;;;;;;;5013650;28;20235;-14
2022/09/17 00:07:47;;;;;;;5.10;1.40;;;;;;;;;;5013440;28;20753;-13
2022/09/17 00:10:15;;;;;;;4.15;1.08;;;;;;;;;;5032115;28;20305;-13
2022/09/17 00:12:42;;;;;;;5.50;1.42;;;;;;;;;;5033349;28;20227;-13
2022/09/17 00:15:09;;;;;;;7.97;1.67;;;;;;;;;;5032850;28;20277;-14
2022/09/17 00:17:38;;;;;;;4.82;1.45;;;;;;;;;;5013606;28;20645;-14
2022/09/17 00:20:08;;;;;;;7.28;1.67;;;;;;;;;;5013598;28;20275;-14
2022/09/17 00:22:35;;;;;;;6.53;1.27;;;;;;;;;;5024448;28;20697;-13
2022/09/17 00:25:03;;;;;;;8.88;2.00;;;;;;;;;;5032697;28;20227;-14
2022/09/17 00:27:30;;;;;;;8.48;1.92;;;;;;;;;;5033063;28;20235;-14
2022/09/17 00:29:57;;;;;;;6.97;1.45;;;;;;;;;;5033125;28;20235;-14
2022/09/17 00:32:25;;;;;;;6.65;1.50;;;;;;;;;;5015721;28;20263;-13
2022/09/17 00:34:54;;;;;;;7.70;1.90;;;;;;;;;;5033536;28;20222;-14
2022/09/17 00:37:21;;;;;;;6.25;1.20;;;;;;;;;;5032946;28;20231;-14
2022/09/17 00:39:48;;;;;;;6.32;2.00;;;;;;;;;;5032442;28;20272;-13
2022/09/17 00:42:16;;;;;;;6.90;1.55;;;;;;;;;;5032789;28;20706;-13
2022/09/17 00:44:50;;;;;;;6.35;1.60;;;;;;;;;;5032119;28;20284;-14
2022/09/17 00:47:19;;;;;;;7.07;1.58;;;;;;;;;;5014687;28;20238;-14
2022/09/17 00:49:47;;;;;;;6.05;1.52;;;;;;;;;;5011997;28;20231;-14
2022/09/17 00:52:16;;;;;;;4.38;1.45;;;;;;;;;;5013144;28;20286;-13
2022/09/17 00:54:46;;;;;;;6.32;1.60;;;;;;;;;;5013098;28;20667;-13
2022/09/17 00:57:13;;;;;;;6.75;1.55;;;;;;;;;;5012238;28;20235;-14
2022/09/17 00:59:40;;;;;;;7.90;1.70;;;;;;;;;;5012826;28;20974;-14
2022/09/17 01:02:08;;;;;;;5.45;1.30;;;;;;;;;;5029619;28;20710;-13
2022/09/17 01:04:35;;;;;;;6.38;1.80;;;;;;;;;;5032638;28;20335;-14
2022/09/17 01:07:04;;;;;;;5.97;1.85;;;;;;;;;;5016265;28;20278;-14
2022/09/17 01:09:34;;;;;;;8.05;2.30;;;;;;;;;;5024796;28;20332;-14
2022/09/17 01:12:06;;;;;;;6.10;2.08;;;;;;;;;;5030725;28;20234;-13
2022/09/17 01:14:39;;;;;;;9.13;1.42;;;;;;;;;;5029437;28;20227;-13
2022/09/17 01:17:13;;;;;;;6.20;1.73;;;;;;;;;;5030913;28;20290;-13
2022/09/17 01:20:11;;;;;;;7.10;1.70;;;;;;;;;;5024284;28;20321;-13
2022/09/17 01:22:40;;;;;;;6.32;1.60;;;;;;;;;;5015575;28;20297;-14
2022/09/17 01:25:14;;;;;;;5.90;1.55;;;;;;;;;;5032237;28;20305;-13
2022/09/17 01:27:49;;;;;;;5.93;1.67;;;;;;;;;;5032441;28;20245;-14
2022/09/17 01:30:31;;;;;;;11.30;1.70;;;;;;;;;;5032049;28;20230;-14
2022/09/17 01:32:59;;;;;;;8.20;1.70;;;;;;;;;;5032032;28;20293;-13
2022/09/17 01:35:30;;;;;;;6.88;1.83;;;;;;;;;;5012202;28;20294;-13
2022/09/17 01:37:59;;;;;;;8.15;1.60;;;;;;;;;;5014481;28;20282;-14
2022/09/17 01:40:27;;;;;;;8.77;1.42;;;;;;;;;;5031191;28;20265;-13
2022/09/17 01:42:57;;;;;;;5.82;1.42;;;;;;;;;;5032377;28;20231;-13
2022/09/17 01:45:26;;;;;;;10.35;1.83;;;;;;;;;;5028364;28;20231;-13
2022/09/17 01:47:55;;;;;;;8.30;1.90;;;;;;;;;;5012284;28;20568;-13
2022/09/17 01:50:23;;;;;;;5.75;1.60;;;;;;;;;;5012323;28;20274;-14
2022/09/17 01:52:51;;;;;;;7.43;1.73;;;;;;;;;;5011976;28;20231;-14
2022/09/17 01:55:18;;;;;;;9.70;2.28;;;;;;;;;;5012160;28;20955;-14
2022/09/17 01:57:47;;;;;;;6.97;2.05;;;;;;;;;;5012132;28;20274;-14
2022/09/17 02:00:16;;;;;;;7.88;1.83;;;;;;;;;;5011900;28;21561;-14
2022/09/17 02:02:44;;;;;;;9.65;2.03;;;;;;;;;;5011875;28;20754;-13
2022/09/17 02:05:14;;;;;;;6.05;1.60;;;;;;;;;;5011573;28;20278;-14
2022/09/17 02:07:42;;;;;;;6.22;1.70;;;;;;;;;;5011599;28;20285;-14
2022/09/17 02:10:10;;;;;;;8.93;1.60;;;;;;;;;;5031180;28;20223;-14
2022/09/17 02:12:38;;;;;;;8.57;1.55;;;;;;;;;;5031606;28;20300;-14
2022/09/17 02:15:07;;;;;;;6.72;2.15;;;;;;;;;;5030872;28;20227;-13
2022/09/17 02:17:35;;;;;;;7.38;1.55;;;;;;;;;;5015138;28;20238;-13
2022/09/17 02:20:02;;;;;;;7.38;1.75;;;;;;;;;;5031273;28;20223;-14
2022/09/17 02:22:33;;;;;;;7.35;1.58;;;;;;;;;;5084011;22;20241;-15
2022/09/17 02:25:02;;;;;;;6.22;1.77;;;;;;;;;;5085051;28;20232;-15
2022/09/17 02:27:32;;;;;;;5.78;1.40;;;;;;;;;;5076778;28;20397;-15
2022/09/17 02:30:00;;;;;;;7.55;1.85;;;;;;;;;;5086991;28;20778;-16
2022/09/17 02:32:27;;;;;;;7.18;1.40;;;;;;;;;;5092253;28;20229;-15
2022/09/17 02:34:54;;;;;;;7.47;1.75;;;;;;;;;;5091985;28;20221;-15
2022/09/17 02:37:22;;;;;;;8.65;1.45;;;;;;;;;;5091496;28;20229;-15
2022/09/17 02:39:50;;;;;;;7.60;1.23;;;;;;;;;;5083079;28;20233;-15
2022/09/17 02:42:21;;;;;;;6.28;1.20;;;;;;;;;;5091362;28;20212;-16
2022/09/17 02:44:50;;;;;;;7.97;1.63;;;;;;;;;;5091203;28;20263;-15
2022/09/17 02:47:28;;;;;;;5.60;1.38;;;;;;;;;;5091369;28;20225;-15
2022/09/17 02:49:59;;;;;;;6.18;1.10;;;;;;;;;;5091325;28;20287;-15
2022/09/17 02:52:30;;;;;;;5.60;1.55;;;;;;;;;;5090222;28;20232;-15
2022/09/17 02:55:00;;;;;;;5.65;1.77;;;;;;;;;;5090606;28;20742;-15
2022/09/17 02:57:29;;;;;;;6.38;1.52;;;;;;;;;;5091250;28;20232;-15
2022/09/17 02:59:58;;;;;;;4.80;1.20;;;;;;;;;;5091436;28;20228;-15
2022/09/17 03:02:27;;;;;;;6.78;1.38;;;;;;;;;;5090774;28;20850;-16
2022/09/17 03:04:55;;;;;;;6.90;1.38;;;;;;;;;;5090780;28;20233;-15
2022/09/17 03:07:22;;;;;;;4.35;1.40;;;;;;;;;;5090944;28;20988;-15
2022/09/17 03:09:49;;;;;;;5.80;1.65;;;;;;;;;;5072001;28;20229;-15
2022/09/17 03:12:18;;;;;;;5.90;1.38;;;;;;;;;;5071008;28;20233;-15
2022/09/17 03:14:46;;;;;;;8.18;1.83;;;;;;;;;;5070557;28;20980;-15
2022/09/17 03:17:13;;;;;;;5.97;1.45;;;;;;;;;;5079358;28;20704;-15
2022/09/17 03:19:41;;;;;;;6.28;1.35;;;;;;;;;;5071279;28;20264;-15
2022/09/17 03:22:08;;;;;;;4.50;1.35;;;;;;;;;;5073726;28;20698;-15
2022/09/17 03:24:36;;;;;;;4.55;0.98;;;;;;;;;;5086294;28;20232;-15
2022/09/17 03:27:03;;;;;;;5.20;1.10;;;;;;;;;;5094497;28;21079;-15
2022/09/17 03:29:32;;;;;;;5.80;1.15;;;;;;;;;;5094713;28;20221;-15
2022/09/17 03:31:59;;;;;;;6.03;1.23;;;;;;;;;;5094747;28;20287;-15
2022/09/17 03:34:27;;;;;;;8.27;1.75;;;;;;;;;;5093343;28;20224;-15
2022/09/17 03:36:54;;;;;;;9.63;1.35;;;;;;;;;;5094523;28;20916;-15
2022/09/17 03:39:21;;;;;;;7.22;1.15;;;;;;;;;;5093761;28;20224;-15
2022/09/17 03:41:49;;;;;;;5.85;1.20;;;;;;;;;;5094163;28;20224;-15
2022/09/17 03:44:18;;;;;;;6.85;0.98;;;;;;;;;;5093544;28;20975;-15
2022/09/17 03:46:46;;;;;;;5.70;1.15;;;;;;;;;;5093250;28;21050;-15
2022/09/17 03:49:14;;;;;;;5.10;1.20;;;;;;;;;;5093975;28;20769;-15
2022/09/17 03:51:41;;;;;;;5.80;1.13;;;;;;;;;;5093953;28;20240;-15
2022/09/17 03:54:09;;;;;;;6.22;1.10;;;;;;;;;;5094682;28;20229;-15
2022/09/17 03:56:36;;;;;;;7.82;1.27;;;;;;;;;;5089978;28;20261;-15
2022/09/17 03:59:03;;;;;;;5.05;1.10;;;;;;;;;;5073800;28;20279;-15
2022/09/17 04:01:31;;;;;;;3.00;1.00;;;;;;;;;;5085806;28;20229;-15
2022/09/17 04:04:00;;;;;;;7.55;1.45;;;;;;;;;;5093969;28;20224;-16
2022/09/17 04:06:28;;;;;;;4.60;1.02;;;;;;;;;;5093919;28;20228;-15
2022/09/17 04:08:55;;;;;;;7.57;1.13;;;;;;;;;;5092026;28;20232;-15
2022/09/17 04:11:23;;;;;;;7.38;1.17;;;;;;;;;;5093833;28;21093;-15
2022/09/17 04:13:50;;;;;;;5.07;1.00;;;;;;;;;;5093740;28;20275;-15
2022/09/17 04:16:17;;;;;;;4.72;1.20;;;;;;;;;;5094218;28;20290;-15
2022/09/17 04:18:45;;;;;;;7.35;1.27;;;;;;;;;;5092682;28;20583;-15
2022/09/17 04:21:13;;;;;;;6.38;1.52;;;;;;;;;;5093043;28;20282;-15
2022/09/17 04:23:41;;;;;;;4.00;1.20;;;;;;;;;;5093712;28;20279;-15
2022/09/17 04:26:08;;;;;;;5.78;1.27;;;;;;;;;;5093603;28;20227;-15
2022/09/17 04:28:35;;;;;;;6.68;1.00;;;;;;;;;;5093806;28;21016;-15
2022/09/17 04:31:03;;;;;;;3.10;0.80;;;;;;;;;;5092594;28;20303;-15
2022/09/17 04:33:30;;;;;;;6.63;1.30;;;;;;;;;;5093036;28;20225;-15
2022/09/17 04:35:57;;;;;;;6.68;1.10;;;;;;;;;;5093586;28;20828;-15
2022/09/17 04:38:26;;;;;;;3.67;0.98;;;;;;;;;;5088975;28;21172;-15
2022/09/17 04:40:56;;;;;;;6.60;1.00;;;;;;;;;;5079031;28;20259;-15
2022/09/17 04:43:23;;;;;;;5.75;0.90;;;;;;;;;;5093579;28;20286;-15
2022/09/17 04:45:50;;;;;;;6.43;1.20;;;;;;;;;;5093477;28;20221;-15
2022/09/17 04:48:18;;;;;;;3.40;1.08;;;;;;;;;;5093130;28;20314;-15
2022/09/17 04:50:45;;;;;;;4.20;1.20;;;;;;;;;;5093274;28;20297;-15
2022/09/17 04:53:12;;;;;;;6.85;1.20;;;;;;;;;;5092716;28;20618;-15
2022/09/17 04:55:41;;;;;;;3.50;1.23;;;;;;;;;;5093147;28;20229;-15
2022/09/17 04:58:08;;;;;;;5.13;0.95;;;;;;;;;;5092935;28;20224;-15
2022/09/17 05:00:36;;;;;;;3.55;0.98;;;;;;;;;;5093321;28;20236;-15
2022/09/17 05:03:03;;;;;;;5.05;1.00;;;;;;;;;;5092454;28;21021;-15
2022/09/17 05:05:31;;;;;;;5.97;1.17;;;;;;;;;;5093174;28;20301;-15
2022/09/17 05:07:58;;;;;;;6.85;1.55;;;;;;;;;;5092155;28;20233;-15
2022/09/17 05:10:25;;;;;;;4.07;1.00;;;;;;;;;;5084752;28;20263;-15
2022/09/17 05:12:54;;;;;;;5.30;1.35;;;;;;;;;;5072968;28;20314;-15
2022/09/17 05:15:22;;;;;;;4.20;1.23;;;;;;;;;;5091137;28;20224;-15
2022/09/17 05:17:49;;;;;;;5.50;1.10;;;;;;;;;;5092919;28;21080;-15
2022/09/17 05:20:16;;;;;;;4.80;1.13;;;;;;;;;;5093092;28;20240;-15
2022/09/17 05:22:44;;;;;;;6.00;1.13;;;;;;;;;;5092133;28;20249;-15
2022/09/17 05:25:11;;;;;;;3.88;1.00;;;;;;;;;;5092401;28;20262;-15
2022/09/17 05:27:39;;;;;;;4.93;1.20;;;;;;;;;;5092756;28;20313;-15
2022/09/17 05:30:08;;;;;;;5.22;1.23;;;;;;;;;;5092509;28;20237;-15
2022/09/17 05:32:35;;;;;;;5.65;1.17;;;;;;;;;;5092767;28;20699;-15
2022/09/17 05:35:03;;;;;;;4.20;0.90;;;;;;;;;;5092403;28;20688;-15
2022/09/17 05:37:32;;;;;;;5.97;1.25;;;;;;;;;;5092264;28;20236;-15
2022/09/17 05:39:59;;;;;;;5.10;1.48;;;;;;;;;;5072372;28;20341;-15
2022/09/17 05:42:27;;;;;;;5.38;1.30;;;;;;;;;;5071896;28;20246;-15
2022/09/17 05:44:54;;;;;;;3.72;1.00;;;;;;;;;;5072346;28;20237;-15
2022/09/17 05:47:23;;;;;;;3.50;1.00;;;;;;;;;;5090032;28;20342;-15
2022/09/17 05:49:50;;;;;;;3.90;1.13;;;;;;;;;;5092144;28;20306;-15
2022/09/17 05:52:18;;;;;;;4.47;0.90;;;;;;;;;;5092331;28;20280;-15
2022/09/17 05:54:45;;;;;;;5.55;1.08;;;;;;;;;;5092199;28;20225;-15
2022/09/17 05:57:14;;;;;;;2.22;0.55;;;;;;;;;;5091270;28;20254;-15
2022/09/17 05:59:42;;;;;;;4.50;1.00;;;;;;;;;;5091993;28;20232;-15
2022/09/17 06:02:11;;;;;;;3.22;0.80;;;;;;;;;;5092363;28;20220;-15
2022/09/17 06:04:40;;;;;;;5.68;0.95;;;;;;;;;;5092543;28;20252;-15
2022/09/17 06:07:08;;;;;;;3.03;0.98;;;;;;;;;;5092000;28;20334;-15
2022/09/17 06:09:36;;;;;;;2.67;0.70;;;;;;;;;;5090550;28;20237;-15
2022/09/17 06:12:03;;;;;;;3.53;0.70;;;;;;;;;;5091655;28;20229;-15
2022/09/17 06:14:31;;;;;;;3.67;0.85;;;;;;;;;;5091901;28;20217;-15
2022/09/17 06:16:58;;;;;;;2.53;0.70;;;;;;;;;;5091940;28;20237;-15
2022/09/17 06:19:27;;;;;;;3.45;0.85;;;;;;;;;;5090969;28;20232;-15
2022/09/17 06:21:55;;;;;;;3.65;0.93;;;;;;;;;;5091495;28;20245;-15
2022/09/17 06:24:23;;;;;;;6.57;1.23;;;;;;;;;;5091894;28;20229;-15
2022/09/17 06:26:51;;;;;;;7.07;1.50;;;;;;;;;;5092156;28;20236;-15
2022/09/17 06:29:18;;;;;;;4.60;1.33;;;;;;;;;;5091327;28;20244;-15
2022/09/17 06:31:47;;;;;;;4.40;0.68;;;;;;;;;;5090528;28;20232;-15
2022/09/17 06:34:14;;;;;;;3.80;0.80;;;;;;;;;;5091485;28;20230;-15
2022/09/17 06:36:42;;;;;;;3.97;0.93;;;;;;;;;;5091219;28;20224;-15
2022/09/17 06:39:10;;;;;;;5.50;1.20;;;;;;;;;;5091794;28;20221;-15
2022/09/17 06:41:38;;;;;;;2.70;0.65;;;;;;;;;;5086722;28;20236;-15
2022/09/17 06:44:05;;;;;;;4.50;1.00;;;;;;;;;;5071218;28;20294;-15
2022/09/17 06:46:32;;;;;;;4.13;0.90;;;;;;;;;;5083284;28;20734;-15
2022/09/17 06:49:01;;;;;;;3.53;0.75;;;;;;;;;;5091585;28;20233;-15
2022/09/17 06:51:28;;;;;;;5.28;0.93;;;;;;;;;;5091359;28;20275;-15
2022/09/17 06:53:55;;;;;;;7.63;1.05;;;;;;;;;;5090328;28;21017;-15
2022/09/17 06:56:24;;;;;;;2.22;0.60;;;;;;;;;;5090904;28;20217;-15
2022/09/17 06:58:51;;;;;;;3.90;0.80;;;;;;;;;;5091341;28;20228;-15
2022/09/17 07:01:19;;;;;;;5.32;1.08;;;;;;;;;;5090439;28;20298;-15
2022/09/17 07:03:48;;;;;;;4.95;0.80;;;;;;;;;;5090992;28;20287;-15
2022/09/17 07:06:15;;;;;;;5.57;1.25;;;;;;;;;;5091269;28;20213;-15
2022/09/17 07:08:43;;;;;;;2.80;0.70;;;;;;;;;;5079427;28;20307;-15
2022/09/17 07:11:10;;;;;;;3.35;0.82;;;;;;;;;;5070686;28;20299;-15
2022/09/17 07:13:39;;;;;;;2.58;0.80;;;;;;;;;;5070847;28;20279;-15
2022/09/17 07:16:06;;;;;;;2.20;0.70;;;;;;;;;;5086693;28;20233;-15
2022/09/17 07:18:33;;;;;;;4.50;0.93;;;;;;;;;;5090937;28;20282;-15
2022/09/17 07:21:01;;;;;;;4.93;0.93;;;;;;;;;;5090514;28;20221;-16
2022/09/17 07:23:29;;;;;;;4.45;0.90;;;;;;;;;;5071344;28;20931;-15
2022/09/17 07:25:57;;;;;;;4.18;1.23;;;;;;;;;;5070257;28;20238;-15
2022/09/17 07:28:25;;;;;;;3.88;0.98;;;;;;;;;;5070879;28;20221;-15
2022/09/17 07:30:53;;;;;;;4.90;0.80;;;;;;;;;;5077348;28;20318;-15
2022/09/17 07:33:22;;;;;;;2.85;1.08;;;;;;;;;;5090823;28;20761;-15
2022/09/17 07:35:52;;;;;;;4.47;1.08;;;;;;;;;;5090868;28;20229;-15
2022/09/17 07:38:20;;;;;;;4.28;0.70;;;;;;;;;;5088435;28;20290;-15
2022/09/17 07:40:52;;;;;;;1.67;0.65;;;;;;;;;;5078318;28;20283;-15
2022/09/17 07:43:19;;;;;;;2.75;0.80;;;;;;;;;;5070341;28;20330;-15
2022/09/17 07:45:47;;;;;;;2.50;0.60;;;;;;;;;;5076526;28;20302;-15
2022/09/17 07:48:15;;;;;;;2.28;0.70;;;;;;;;;;5081205;28;20229;-15
2022/09/17 07:50:43;;;;;;;2.78;0.77;;;;;;;;;;5069733;28;20716;-15
2022/09/17 07:53:10;;;;;;;3.22;0.95;;;;;;;;;;5070590;28;20287;-15
2022/09/17 07:55:37;;;;;;;3.92;1.05;;;;;;;;;;5070069;28;20265;-15
2022/09/17 07:58:05;;;;;;;2.63;0.68;;;;;;;;;;5070501;28;20229;-15
2022/09/17 08:00:32;;;;;;;2.70;0.60;;;;;;;;;;5089651;28;20233;-15
2022/09/17 08:03:00;;;;;;;2.22;0.65;;;;;;;;;;5090557;28;20681;-15
2022/09/17 08:05:29;;;;;;;5.10;0.70;;;;;;;;;;5090471;28;20224;-15
2022/09/17 08:07:56;;;;;;;2.58;0.57;;;;;;;;;;5088755;28;20235;-15
2022/09/17 08:10:25;;;;;;;3.42;0.60;;;;;;;;;;5075036;28;20241;-15
2022/09/17 08:12:54;;;;;;;4.40;0.70;;;;;;;;;;5073616;28;20233;-15
2022/09/17 08:15:22;;;;;;;3.63;0.63;;;;;;;;;;5075724;28;20225;-15
2022/09/17 08:17:49;;;;;;;2.50;0.60;;;;;;;;;;5093690;28;21054;-15
2022/09/17 08:20:16;;;;;;;1.92;0.60;;;;;;;;;;5092812;28;21065;-15
2022/09/17 08:22:45;;;;;;;3.08;0.57;;;;;;;;;;5093603;28;20310;-15
2022/09/17 08:25:16;;;;;;;2.63;0.80;;;;;;;;;;5093645;28;20263;-15
2022/09/17 08:27:44;;;;;;;2.83;0.90;;;;;;;;;;5094032;28;20221;-15
2022/09/17 08:30:11;;;;;;;4.65;0.82;;;;;;;;;;5093403;28;20228;-15
2022/09/17 08:32:38;;;;;;;1.50;0.50;;;;;;;;;;5093188;28;20225;-15
2022/09/17 08:35:06;;;;;;;4.50;0.55;;;;;;;;;;5093545;28;20225;-15
2022/09/17 08:37:34;;;;;;;1.75;0.60;;;;;;;;;;5089564;28;20218;-15
2022/09/17 08:40:02;;;;;;;1.88;0.40;;;;;;;;;;5072424;28;20222;-15
2022/09/17 08:42:31;;;;;;;2.15;0.70;;;;;;;;;;5075651;28;20249;-15
2022/09/17 08:44:59;;;;;;;2.47;0.57;;;;;;;;;;5093314;28;20300;-15
2022/09/17 08:47:28;;;;;;;4.88;0.80;;;;;;;;;;5093381;28;20676;-15
2022/09/17 08:49:56;;;;;;;2.25;0.65;;;;;;;;;;5093667;28;20294;-15
2022/09/17 08:52:28;;;;;;;3.85;0.68;;;;;;;;;;5093358;28;20228;-15
2022/09/17 08:54:56;;;;;;;2.55;0.82;;;;;;;;;;5092275;28;20315;-15
2022/09/17 08:57:26;;;;;;;4.38;0.70;;;;;;;;;;5093279;28;21264;-15
2022/09/17 08:59:55;;;;;;;1.88;0.80;;;;;;;;;;5093097;28;20259;-15
2022/09/17 09:02:26;;;;;;;3.53;0.65;;;;;;;;;;5093072;28;20228;-15
2022/09/17 09:04:56;;;;;;;2.92;0.60;;;;;;;;;;5091968;28;20306;-15
2022/09/17 09:07:24;;;;;;;3.90;0.80;;;;;;;;;;5090081;28;20319;-15
2022/09/17 09:09:55;;;;;;;4.68;1.13;;;;;;;;;;5072856;28;20236;-15
2022/09/17 09:12:24;;;;;;;2.60;0.80;;;;;;;;;;5073130;28;20292;-15
2022/09/17 09:14:53;;;;;;;3.55;0.77;;;;;;;;;;5072955;28;20233;-15
2022/09/17 09:17:21;;;;;;;3.42;0.85;;;;;;;;;;5090132;28;20286;-15
2022/09/17 09:19:48;;;;;;;2.03;0.60;;;;;;;;;;5093094;28;20233;-15
2022/09/17 09:22:29;;;;;;;4.63;0.80;;;;;;;;;;5092393;28;20249;-15
2022/09/17 09:24:59;;;;;;;3.78;0.60;;;;;;;;;;5092662;28;20225;-15
2022/09/17 09:27:27;;;;;;;3.10;0.80;;;;;;;;;;5091727;28;20240;-15
2022/09/17 09:30:00;;;;;;;2.22;0.70;;;;;;;;;;5092366;28;20217;-15
2022/09/17 09:32:32;;;;;;;3.50;0.50;;;;;;;;;;5092459;28;20365;-15
2022/09/17 09:34:59;;;;;;;5.22;0.60;;;;;;;;;;5092480;28;20270;-15
2022/09/17 09:37:27;;;;;;;1.70;0.50;;;;;;;;;;5091283;28;20704;-15
2022/09/17 09:39:55;;;;;;;1.33;0.43;;;;;;;;;;5085405;28;20303;-15
2022/09/17 09:42:24;;;;;;;3.13;0.65;;;;;;;;;;5072772;28;20221;-15
2022/09/17 09:44:51;;;;;;;3.33;0.70;;;;;;;;;;5072494;28;20280;-15
2022/09/17 09:47:35;;;;;;;1.65;0.60;;;;;;;;;;5090871;28;20265;-15
2022/09/17 09:50:06;;;;;;;2.55;0.60;;;;;;;;;;5092057;28;20237;-15
2022/09/17 09:52:37;;;;;;;1.95;0.50;;;;;;;;;;5092380;28;20236;-15
2022/09/17 09:55:19;;;;;;;3.92;0.50;;;;;;;;;;5091548;28;20228;-15
2022/09/17 09:57:53;;;;;;;1.25;0.40;;;;;;;;;;5092048;28;20241;-15
2022/09/17 10:00:25;;;;;;;2.38;0.50;;;;;;;;;;5091563;28;20715;-15
2022/09/17 10:02:55;;;;;;;4.85;0.80;;;;;;;;;;5092033;28;20229;-15
2022/09/17 10:05:23;;;;;;;4.78;0.55;;;;;;;;;;5091981;28;20684;-15
2022/09/17 10:07:50;;;;;;;2.63;0.60;;;;;;;;;;5091892;28;20225;-15
2022/09/17 10:10:18;;;;;;;2.88;0.75;;;;;;;;;;5091443;28;20237;-15
2022/09/17 10:12:45;;;;;;;2.55;0.60;;;;;;;;;;5091863;28;20700;-15
2022/09/17 10:15:23;;;;;;;5.38;0.90;;;;;;;;;;5091927;28;20977;-15
2022/09/17 10:17:52;;;;;;;4.25;0.80;;;;;;;;;;5092174;28;20285;-15
2022/09/17 10:20:21;;;;;;;3.95;0.95;;;;;;;;;;5091202;28;20220;-15
2022/09/17 10:22:49;;;;;;;4.78;0.60;;;;;;;;;;5090760;28;20668;-15
2022/09/17 10:25:31;;;;;;;2.60;0.73;;;;;;;;;;5091915;28;20232;-15
2022/09/17 10:27:59;;;;;;;2.63;0.60;;;;;;;;;;5088886;28;20568;-15
2022/09/17 10:30:27;;;;;;;2.10;0.68;;;;;;;;;;5091651;28;20302;-16
2022/09/17 10:33:18;;;;;;;3.20;0.70;;;;;;;;;;5090757;28;20493;-15
2022/09/17 10:35:55;;;;;;;1.75;0.50;;;;;;;;;;5075537;28;20221;-15
2022/09/17 10:38:26;;;;;;;3.10;0.57;;;;;;;;;;5091349;28;21095;-15
2022/09/17 10:40:54;;;;;;;2.15;0.60;;;;;;;;;;5091612;28;20724;-16
2022/09/17 10:43:22;;;;;;;1.88;0.47;;;;;;;;;;5090067;28;20562;-15
2022/09/17 10:45:56;;;;;;;3.35;0.50;;;;;;;;;;5090546;28;20236;-15
2022/09/17 10:48:24;;;;;;;3.88;0.80;;;;;;;;;;5091526;28;20219;-15
2022/09/17 10:50:52;;;;;;;3.65;0.82;;;;;;;;;;5091713;28;20280;-16
2022/09/17 10:53:22;;;;;;;2.72;0.40;;;;;;;;;;5091189;28;20244;-15
2022/09/17 10:55:50;;;;;;;2.35;0.40;;;;;;;;;;5090439;28;20244;-15
2022/09/17 10:58:21;;;;;;;3.22;0.60;;;;;;;;;;5091391;28;20619;-15
2022/09/17 11:00:52;;;;;;;4.90;0.70;;;;;;;;;;5091182;28;20333;-15
2022/09/17 11:03:26;;;;;;;1.70;0.52;;;;;;;;;;5091511;28;20233;-15
2022/09/17 11:06:06;;;;;;;2.58;0.50;;;;;;;;;;5086475;28;20313;-15
2022/09/17 11:08:43;;;;;;;5.07;0.55;;;;;;;;;;5090788;28;20229;-15
2022/09/17 11:11:11;;;;;;;3.65;0.68;;;;;;;;;;5090928;28;20803;-15
2022/09/17 11:13:39;;;;;;;2.42;0.35;;;;;;;;;;5091183;28;20569;-15
2022/09/17 11:16:12;;;;;;;2.70;0.50;;;;;;;;;;5091035;28;20584;-15
2022/09/17 11:18:40;;;;;;;1.90;0.35;;;;;;;;;;5070724;28;20283;-15
2022/09/17 11:21:22;;;;;;;1.60;0.40;;;;;;;;;;5070002;28;20700;-15
2022/09/17 11:23:56;;;;;;;2.38;0.40;;;;;;;;;;5053941;28;20217;-15
2022/09/17 11:26:27;;;;;;;1.33;0.43;;;;;;;;;;5071288;28;20218;-15
2022/09/17 11:28:57;;;;;;;3.65;0.65;;;;;;;;;;5085504;28;20232;-15
2022/09/17 11:31:28;;;;;;;2.70;0.60;;;;;;;;;;5090872;28;20316;-15
2022/09/17 11:34:02;;;;;;;2.58;0.70;;;;;;;;;;5091518;28;20225;-15
2022/09/17 11:36:30;;;;;;;1.15;0.43;;;;;;;;;;5089963;28;20229;-15
2022/09/17 11:38:59;;;;;;;4.13;1.05;;;;;;;;;;5089987;28;20236;-15
2022/09/17 11:41:27;;;;;;;3.88;0.93;;;;;;;;;;5092413;28;20224;-15
2022/09/17 11:43:57;;;;;;;1.23;0.40;;;;;;;;;;5094647;28;20266;-15
2022/09/17 11:46:25;;;;;;;3.63;0.68;;;;;;;;;;5094386;28;20242;-15
2022/09/17 11:48:54;;;;;;;3.67;0.60;;;;;;;;;;5094333;28;20236;-15
2022/09/17 11:51:23;;;;;;;1.90;0.68;;;;;;;;;;5093966;28;20302;-15
2022/09/17 11:53:51;;;;;;;3.67;0.85;;;;;;;;;;5093928;28;20240;-15
2022/09/17 11:56:20;;;;;;;1.58;0.50;;;;;;;;;;5094265;28;20228;-15
2022/09/17 11:58:48;;;;;;;4.03;0.70;;;;;;;;;;5094199;28;20225;-15
2022/09/17 12:01:16;;;;;;;2.75;1.15;;;;;;;;;;5092851;28;20322;-15
2022/09/17 12:03:46;;;;;;;4.68;1.05;;;;;;;;;;5094282;28;20213;-15
2022/09/17 12:06:13;;;;;;;6.00;0.70;;;;;;;;;;5078563;28;20238;-15
2022/09/17 12:08:42;;;;;;;4.30;1.10;;;;;;;;;;5073467;28;20267;-15
2022/09/17 12:11:10;;;;;;;3.75;0.70;;;;;;;;;;5073712;28;20971;-15
2022/09/17 12:13:39;;;;;;;6.00;0.98;;;;;;;;;;5073755;28;20245;-15
2022/09/17 12:16:12;;;;;;;4.50;0.82;;;;;;;;;;5082346;28;20302;-15
2022/09/17 12:18:45;;;;;;;4.30;1.13;;;;;;;;;;5093953;28;21645;-15
2022/09/17 12:21:13;;;;;;;2.72;0.95;;;;;;;;;;5093178;28;20745;-15
2022/09/17 12:23:41;;;;;;;4.32;0.65;;;;;;;;;;5092826;28;20231;-15
2022/09/17 12:26:14;;;;;;;3.13;0.80;;;;;;;;;;5074584;28;20262;-15
2022/09/17 12:28:45;;;;;;;3.30;0.60;;;;;;;;;;5093451;28;20286;-15
2022/09/17 12:31:14;;;;;;;3.70;0.68;;;;;;;;;;5093533;28;20228;-15
2022/09/17 12:33:42;;;;;;;5.68;1.08;;;;;;;;;;5092577;28;20242;-15
2022/09/17 12:36:16;;;;;;;3.47;0.75;;;;;;;;;;5093293;28;20310;-15
2022/09/17 12:38:48;;;;;;;2.67;0.60;;;;;;;;;;5074802;28;20279;-15
2022/09/17 12:41:16;;;;;;;3.85;0.70;;;;;;;;;;5073791;28;20840;-15
2022/09/17 12:43:58;;;;;;;7.55;1.20;;;;;;;;;;5073656;28;20209;-16
2022/09/17 12:46:35;;;;;;;2.80;0.82;;;;;;;;;;5091688;28;20232;-15
2022/09/17 12:49:18;;;;;;;7.28;1.02;;;;;;;;;;5093293;28;20636;-15
2022/09/17 12:51:51;;;;;;;3.95;0.70;;;;;;;;;;5079511;28;20311;-15
2022/09/17 12:54:22;;;;;;;2.28;0.70;;;;;;;;;;5092354;28;20723;-15
2022/09/17 12:56:52;;;;;;;5.45;0.85;;;;;;;;;;5092498;28;20229;-15
2022/09/17 12:59:21;;;;;;;6.95;0.93;;;;;;;;;;5093334;28;20259;-15
2022/09/17 13:01:49;;;;;;;5.65;1.17;;;;;;;;;;5093130;28;20326;-15
2022/09/17 13:04:27;;;;;;;2.55;0.70;;;;;;;;;;5093565;28;20665;-15
2022/09/17 13:07:33;;;;;;;3.80;0.77;;;;;;;;;;5086296;28;20238;-15
2022/09/17 13:10:03;;;;;;;3.10;0.70;;;;;;;;;;5072825;28;20240;-15
2022/09/17 13:12:31;;;;;;;5.22;0.77;;;;;;;;;;5072644;28;20252;-15
2022/09/17 13:15:17;;;;;;;5.35;0.95;;;;;;;;;;5072720;28;21061;-15
2022/09/17 13:17:53;;;;;;;4.13;0.88;;;;;;;;;;5077567;28;20233;-15
2022/09/17 13:20:40;;;;;;;2.03;0.57;;;;;;;;;;5092851;28;20229;-15
2022/09/17 13:23:09;;;;;;;4.32;0.90;;;;;;;;;;5092403;28;20237;-15
2022/09/17 13:25:42;;;;;;;4.45;0.80;;;;;;;;;;5093158;28;20874;-15
2022/09/17 13:28:10;;;;;;;3.55;0.80;;;;;;;;;;5091383;28;20278;-15
2022/09/17 13:30:56;;;;;;;4.80;0.90;;;;;;;;;;5076868;28;20867;-15
2022/09/17 13:33:42;;;;;;;3.33;0.75;;;;;;;;;;5092563;28;20259;-15
2022/09/17 13:36:24;;;;;;;3.67;0.70;;;;;;;;;;5090988;28;20322;-15
2022/09/17 13:38:53;;;;;;;3.58;1.10;;;;;;;;;;5092335;28;20216;-15
2022/09/17 13:41:23;;;;;;;2.17;0.55;;;;;;;;;;5091613;28;20225;-15
2022/09/17 13:43:54;;;;;;;3.28;0.43;;;;;;;;;;5091918;28;21078;-15
2022/09/17 13:46:22;;;;;;;3.28;0.60;;;;;;;;;;5092351;28;20236;-15
2022/09/17 13:48:51;;;;;;;2.65;0.65;;;;;;;;;;5092912;28;20229;-15
2022/09/17 13:51:37;;;;;;;3.35;0.63;;;;;;;;;;5091457;28;20290;-15
2022/09/17 13:54:06;;;;;;;3.72;0.93;;;;;;;;;;5092113;28;20225;-15
2022/09/17 13:56:34;;;;;;;1.92;0.65;;;;;;;;;;5092182;28;20236;-15
2022/09/17 13:59:05;;;;;;;4.05;0.93;;;;;;;;;;5092319;28;20224;-15
2022/09/17 14:01:47;;;;;;;4.90;0.80;;;;;;;;;;5091681;28;21049;-15
2022/09/17 14:04:29;;;;;;;2.65;0.65;;;;;;;;;;5090916;28;20704;-15
2022/09/17 14:06:58;;;;;;;2.60;0.73;;;;;;;;;;5091718;28;20232;-15
2022/09/17 14:09:45;;;;;;;2.05;0.60;;;;;;;;;;5091757;28;20386;-15
2022/09/17 14:12:31;;;;;;;2.88;0.90;;;;;;;;;;5091695;28;20282;-15
2022/09/17 14:14:59;;;;;;;5.05;0.95;;;;;;;;;;5092170;28;20286;-15
2022/09/17 14:17:45;;;;;;;5.10;1.38;;;;;;;;;;5092105;28;20237;-15
2022/09/17 14:20:13;;;;;;;2.78;0.80;;;;;;;;;;5092095;28;20228;-15
2022/09/17 14:22:40;;;;;;;3.88;0.60;;;;;;;;;;5091444;28;20302;-15
2022/09/17 14:25:14;;;;;;;1.92;0.70;;;;;;;;;;5091608;28;20241;-15
2022/09/17 14:27:44;;;;;;;2.97;0.90;;;;;;;;;;5091669;28;20229;-15
2022/09/17 14:30:14;;;;;;;5.20;0.77;;;;;;;;;;5091707;28;20225;-15
2022/09/17 14:32:42;;;;;;;3.22;1.00;;;;;;;;;;5091621;28;20302;-15
2022/09/17 14:35:14;;;;;;;4.20;1.20;;;;;;;;;;5089607;28;20244;-15
2022/09/17 14:37:47;;;;;;;3.78;0.93;;;;;;;;;;5091274;28;20290;-15
2022/09/17 14:40:14;;;;;;;6.60;1.25;;;;;;;;;;5091587;28;20302;-15
2022/09/17 14:42:42;;;;;;;5.80;1.00;;;;;;;;;;5091324;28;20282;-15
2022/09/17 14:45:15;;;;;;;6.47;1.30;;;;;;;;;;5090537;28;20676;-15
2022/09/17 14:47:44;;;;;;;4.28;1.00;;;;;;;;;;5071184;28;20225;-16
2022/09/17 14:50:19;;;;;;;4.57;1.20;;;;;;;;;;5071530;28;20259;-15
2022/09/17 14:52:47;;;;;;;5.22;1.02;;;;;;;;;;5071107;28;20280;-15
2022/09/17 14:55:16;;;;;;;6.80;0.95;;;;;;;;;;5071100;28;20303;-15
2022/09/17 14:57:43;;;;;;;6.28;1.23;;;;;;;;;;5084144;28;20233;-15